Forside
METAR-TAF:

METAR-TAF

Lufthavne :

Göteborg City Airport

Göteborg, Sverige

Breddekreds: 57-47N, længdekreds: 011-53E, højde: 20 m

Aktuelle vejr

Denne rapport blev lavet for 32 minutter siden, kl. 23:50 UTC
Vind stille
Temperatur 3°C
Fugtighed 93%
Tryk 1025 hPa
Sigt: 0500 m
tåge

METAR: ESGP 222350Z AUTO 00000KT 0500 R01/1500N R19/P2000D FG OVC001/// 03/02 Q1025

Tid: 01:22 (00:22 UTC)


TAF: fraværende

Vejrobservationer og prognoser fra mere end 4000 lufthavne (METAR og TAF).

De gule og røde prikker repræsenterer de meteorologiske stationer.

Flyt musen over at se navnet på stationen.

Så klik over at se vejr observationer og prognoser.

At skifte det kort: Klik på de grønne knapper med et sort kors for at zoome ind; på den grønne knap med en bindestreg for at zoome ud; eller på de grønne pile for tilstødende kort.


METAR-TAF: